WZZ3357 EETN-EPWA
Flight info
| Callsign | WZZ3357 |
|---|---|
| Flight time | N/A |
| Altitude | 36000 |
| Route | ORTAX DCT LUTAL DCT BERIL/N0433F350 DCT BOKSU/N0436F360 M857 GERVI DCT NEPOX |
| Aircraft | A321/M-SDE1E2E3FGIJ1J4RWXY/LB1 |
Departure
| Time | N/A |
|---|---|
| Airport | Lennart Meri Tallinn Airport (EETN) |
Arrival
| Time | 2026-05-01 15:29 |
|---|---|
| Airport | Warsaw Chopin Airport (EPWA) |
| Time | Latitude | Longitude | Altitude | Speed | Heading |
|---|---|---|---|---|---|
| 2026-05-01 14:55 | 54.39856 | 23.07452 | 36325 ft | 490 kts | 184° |
| 2026-05-01 14:55 | 54.37608 | 23.07065 | 36314 ft | 490 kts | 184° |
| 2026-05-01 14:56 | 54.30847 | 23.05550 | 36275 ft | 491 kts | 193° |
| 2026-05-01 14:56 | 54.24412 | 23.01642 | 36282 ft | 491 kts | 202° |
| 2026-05-01 14:57 | 54.18045 | 22.97362 | 36288 ft | 492 kts | 201° |
| 2026-05-01 14:57 | 54.08463 | 22.91027 | 36297 ft | 492 kts | 200° |
| 2026-05-01 14:58 | 54.01848 | 22.88074 | 36296 ft | 492 kts | 191° |
| 2026-05-01 14:58 | 53.95165 | 22.85542 | 36296 ft | 492 kts | 192° |
| 2026-05-01 14:59 | 53.88479 | 22.82989 | 36298 ft | 493 kts | 192° |
| 2026-05-01 14:59 | 53.81789 | 22.80442 | 36300 ft | 493 kts | 192° |
| 2026-05-01 15:00 | 53.71748 | 22.76672 | 36302 ft | 493 kts | 191° |
| 2026-05-01 15:01 | 53.65053 | 22.74168 | 36308 ft | 493 kts | 191° |
| 2026-05-01 15:01 | 53.58401 | 22.71676 | 36304 ft | 493 kts | 191° |
| 2026-05-01 15:02 | 53.51706 | 22.69176 | 36303 ft | 493 kts | 191° |
| 2026-05-01 15:02 | 53.45005 | 22.66686 | 36305 ft | 493 kts | 191° |
| 2026-05-01 15:03 | 53.38301 | 22.64194 | 36304 ft | 493 kts | 191° |
| 2026-05-01 15:03 | 53.31598 | 22.61712 | 36291 ft | 494 kts | 191° |
| 2026-05-01 15:03 | 53.28226 | 22.60475 | 35796 ft | 499 kts | 190° |
| 2026-05-01 15:04 | 53.24840 | 22.59239 | 35290 ft | 497 kts | 190° |
| 2026-05-01 15:04 | 53.21473 | 22.58006 | 34797 ft | 495 kts | 190° |
| 2026-05-01 15:04 | 53.18112 | 22.56775 | 34309 ft | 493 kts | 190° |
| 2026-05-01 15:04 | 53.14769 | 22.55551 | 33783 ft | 490 kts | 190° |
| 2026-05-01 15:05 | 53.11453 | 22.54337 | 33317 ft | 486 kts | 190° |
| 2026-05-01 15:05 | 53.08162 | 22.53128 | 32835 ft | 483 kts | 189° |
| 2026-05-01 15:05 | 53.04893 | 22.51932 | 32354 ft | 479 kts | 189° |
| 2026-05-01 15:05 | 53.01646 | 22.50750 | 31878 ft | 476 kts | 189° |
| 2026-05-01 15:06 | 52.98422 | 22.49579 | 31416 ft | 472 kts | 189° |
| 2026-05-01 15:06 | 52.95221 | 22.48422 | 30942 ft | 469 kts | 189° |
| 2026-05-01 15:06 | 52.92039 | 22.47274 | 30480 ft | 466 kts | 189° |
| 2026-05-01 15:06 | 52.88881 | 22.46131 | 29981 ft | 463 kts | 189° |
| 2026-05-01 15:07 | 52.85748 | 22.44998 | 29551 ft | 458 kts | 189° |
| 2026-05-01 15:07 | 52.82647 | 22.43874 | 29102 ft | 454 kts | 189° |
| 2026-05-01 15:07 | 52.79577 | 22.42765 | 28686 ft | 450 kts | 189° |
| 2026-05-01 15:07 | 52.76532 | 22.41670 | 28263 ft | 446 kts | 189° |
| 2026-05-01 15:08 | 52.73509 | 22.40586 | 27847 ft | 443 kts | 189° |
| 2026-05-01 15:08 | 52.70509 | 22.39509 | 27451 ft | 440 kts | 189° |
| 2026-05-01 15:08 | 52.67563 | 22.38454 | 27060 ft | 438 kts | 189° |
| 2026-05-01 15:08 | 52.64596 | 22.37395 | 26673 ft | 435 kts | 189° |
| 2026-05-01 15:09 | 52.61653 | 22.36349 | 26277 ft | 432 kts | 189° |
| 2026-05-01 15:09 | 52.58723 | 22.35308 | 25876 ft | 429 kts | 190° |
| 2026-05-01 15:09 | 52.55812 | 22.34273 | 25475 ft | 427 kts | 190° |
| 2026-05-01 15:09 | 52.52913 | 22.33242 | 25071 ft | 425 kts | 190° |
| 2026-05-01 15:10 | 52.50030 | 22.32217 | 24655 ft | 423 kts | 190° |
| 2026-05-01 15:10 | 52.44299 | 22.30185 | 23816 ft | 420 kts | 190° |
| 2026-05-01 15:10 | 52.41450 | 22.29181 | 23350 ft | 417 kts | 190° |
| 2026-05-01 15:11 | 52.38620 | 22.28188 | 22898 ft | 415 kts | 190° |
| 2026-05-01 15:11 | 52.33012 | 22.26213 | 22003 ft | 410 kts | 190° |
| 2026-05-01 15:11 | 52.30235 | 22.25233 | 21555 ft | 407 kts | 190° |
| 2026-05-01 15:12 | 52.27474 | 22.24264 | 21104 ft | 405 kts | 190° |
| 2026-05-01 15:12 | 52.22004 | 22.22230 | 20210 ft | 402 kts | 199° |
| 2026-05-01 15:12 | 52.19539 | 22.20146 | 19785 ft | 399 kts | 218° |
| 2026-05-01 15:13 | 52.15784 | 22.09057 | 18427 ft | 366 kts | 274° |
| 2026-05-01 15:14 | 52.15911 | 22.00927 | 17511 ft | 356 kts | 280° |
| 2026-05-01 15:14 | 52.16202 | 21.96980 | 17108 ft | 348 kts | 286° |
| 2026-05-01 15:14 | 52.16934 | 21.89272 | 16329 ft | 341 kts | 286° |
| 2026-05-01 15:15 | 52.17654 | 21.81704 | 15560 ft | 335 kts | 286° |
| 2026-05-01 15:15 | 52.18368 | 21.74250 | 14797 ft | 331 kts | 286° |
| 2026-05-01 15:16 | 52.19071 | 21.66876 | 13998 ft | 328 kts | 285° |
| 2026-05-01 15:16 | 52.19745 | 21.59616 | 13248 ft | 321 kts | 285° |
| 2026-05-01 15:17 | 52.20139 | 21.52463 | 12571 ft | 318 kts | 276° |
| 2026-05-01 15:18 | 52.20147 | 21.41731 | 11444 ft | 313 kts | 276° |
| 2026-05-01 15:18 | 52.20151 | 21.38202 | 11094 ft | 311 kts | 276° |
| 2026-05-01 15:19 | 52.19343 | 21.27813 | 10046 ft | 315 kts | 249° |
| 2026-05-01 15:19 | 52.17530 | 21.21343 | 9159 ft | 316 kts | 249° |
| 2026-05-01 15:19 | 52.16543 | 21.18124 | 8603 ft | 321 kts | 237° |
| 2026-05-01 15:20 | 52.12857 | 21.15130 | 7538 ft | 295 kts | 171° |
| 2026-05-01 15:20 | 52.10977 | 21.16124 | 7028 ft | 279 kts | 150° |
| 2026-05-01 15:20 | 52.09304 | 21.17620 | 6494 ft | 270 kts | 146° |
| 2026-05-01 15:21 | 52.07724 | 21.19191 | 5964 ft | 263 kts | 146° |
| 2026-05-01 15:21 | 52.06180 | 21.20725 | 5399 ft | 257 kts | 147° |
| 2026-05-01 15:21 | 52.04660 | 21.22186 | 4873 ft | 251 kts | 149° |
| 2026-05-01 15:21 | 52.03164 | 21.23573 | 4319 ft | 245 kts | 149° |
| 2026-05-01 15:22 | 51.99837 | 21.25216 | 3327 ft | 257 kts | 183° |
| 2026-05-01 15:22 | 51.98196 | 21.24412 | 3170 ft | 241 kts | 215° |
| 2026-05-01 15:22 | 51.97067 | 21.22556 | 3053 ft | 227 kts | 240° |
| 2026-05-01 15:23 | 51.96450 | 21.20262 | 2983 ft | 220 kts | 260° |
| 2026-05-01 15:23 | 51.96355 | 21.17824 | 3002 ft | 216 kts | 280° |
| 2026-05-01 15:23 | 51.96755 | 21.15517 | 2991 ft | 209 kts | 298° |
| 2026-05-01 15:23 | 51.97529 | 21.13684 | 2985 ft | 187 kts | 317° |
| 2026-05-01 15:24 | 51.98500 | 21.12432 | 2988 ft | 174 kts | 332° |
| 2026-05-01 15:24 | 51.99590 | 21.11488 | 3030 ft | 179 kts | 334° |
| 2026-05-01 15:24 | 52.00689 | 21.10536 | 3011 ft | 178 kts | 334° |
| 2026-05-01 15:24 | 52.01726 | 21.09635 | 2990 ft | 162 kts | 334° |
| 2026-05-01 15:25 | 52.02685 | 21.08803 | 3021 ft | 150 kts | 333° |
| 2026-05-01 15:25 | 52.03566 | 21.08039 | 3019 ft | 143 kts | 334° |
| 2026-05-01 15:25 | 52.04433 | 21.07287 | 3007 ft | 141 kts | 334° |
| 2026-05-01 15:25 | 52.05301 | 21.06533 | 2776 ft | 141 kts | 334° |
| 2026-05-01 15:26 | 52.06155 | 21.05791 | 2517 ft | 140 kts | 334° |
| 2026-05-01 15:26 | 52.07009 | 21.05050 | 2300 ft | 139 kts | 333° |
| 2026-05-01 15:26 | 52.07860 | 21.04310 | 2104 ft | 138 kts | 333° |
| 2026-05-01 15:26 | 52.08707 | 21.03573 | 1915 ft | 139 kts | 333° |
| 2026-05-01 15:27 | 52.09551 | 21.02838 | 1730 ft | 137 kts | 334° |
| 2026-05-01 15:27 | 52.10399 | 21.02110 | 1509 ft | 138 kts | 334° |
| 2026-05-01 15:27 | 52.11239 | 21.01386 | 1340 ft | 136 kts | 333° |
| 2026-05-01 15:28 | 52.12906 | 20.99922 | 996 ft | 136 kts | 334° |
| 2026-05-01 15:28 | 52.13743 | 20.99190 | 810 ft | 137 kts | 333° |
| 2026-05-01 15:28 | 52.14574 | 20.98468 | 602 ft | 136 kts | 334° |
| 2026-05-01 15:29 | 52.16174 | 20.97065 | 336 ft | 114 kts | 332° |
| 2026-05-01 15:29 | 52.16716 | 20.96592 | 339 ft | 48 kts | 332° |
| 2026-05-01 15:29 | 52.17056 | 20.96521 | 338 ft | 14 kts | 10° |
| 2026-05-01 15:30 | 52.17032 | 20.96708 | 334 ft | 11 kts | 154° |
| 2026-05-01 15:31 | 52.16841 | 20.96915 | 337 ft | 4 kts | 83° |
| 2026-05-01 15:31 | 52.16839 | 20.97003 | 339 ft | 0 kts | 96° |